createdAt,value
2019-01-22T00:00:19.795Z,0.00
2019-01-22T00:01:19.966Z,0.00
2019-01-22T00:02:20.129Z,0.00
2019-01-22T00:03:20.295Z,0.00
2019-01-22T00:04:20.453Z,0.00
2019-01-22T00:05:20.617Z,0.00
2019-01-22T00:06:20.784Z,0.00
2019-01-22T00:07:20.948Z,0.00
2019-01-22T00:08:21.113Z,0.00
2019-01-22T00:09:21.272Z,0.00
2019-01-22T00:10:21.446Z,0.00
2019-01-22T00:11:21.605Z,0.00
2019-01-22T00:12:21.775Z,0.00
2019-01-22T00:13:21.943Z,0.00
2019-01-22T00:14:22.107Z,0.00
2019-01-22T00:15:22.266Z,0.00
2019-01-22T00:16:22.436Z,0.00
2019-01-22T00:17:22.592Z,0.00
2019-01-22T00:18:22.752Z,0.00
2019-01-22T00:19:22.922Z,0.00
2019-01-22T00:20:23.080Z,0.00
2019-01-22T00:21:23.309Z,0.00
2019-01-22T00:22:23.368Z,0.00
2019-01-22T00:23:23.531Z,0.00
2019-01-22T00:24:23.684Z,0.00
2019-01-22T00:25:23.846Z,0.00
2019-01-22T00:26:24.008Z,0.00
2019-01-22T00:27:24.170Z,0.00
2019-01-22T00:28:25.420Z,0.00
2019-01-22T00:29:24.512Z,0.00
2019-01-22T00:30:24.676Z,0.00
2019-01-22T00:31:24.833Z,0.00
2019-01-22T00:32:24.998Z,0.00
2019-01-22T00:33:25.163Z,0.00
2019-01-22T00:34:25.329Z,0.00
2019-01-22T00:35:25.480Z,0.00
2019-01-22T00:36:25.655Z,0.00
2019-01-22T00:37:25.814Z,0.00
2019-01-22T00:38:25.972Z,0.00
2019-01-22T00:39:26.128Z,0.00
2019-01-22T00:40:26.290Z,0.00
2019-01-22T00:41:26.455Z,0.00
2019-01-22T00:42:26.615Z,0.00
2019-01-22T00:43:26.780Z,0.00
2019-01-22T00:44:26.949Z,0.00
2019-01-22T00:45:27.125Z,0.00
2019-01-22T00:46:27.281Z,0.00
2019-01-22T00:47:27.450Z,0.00
2019-01-22T00:48:30.120Z,0.00
2019-01-22T00:49:27.803Z,0.00
2019-01-22T00:50:27.964Z,0.00
2019-01-22T00:51:28.118Z,0.00
2019-01-22T00:52:28.291Z,0.00
2019-01-22T00:53:28.451Z,0.00
2019-01-22T00:54:28.614Z,0.00
2019-01-22T00:55:28.774Z,0.00
2019-01-22T00:56:28.927Z,0.00
2019-01-22T00:57:29.093Z,0.00
2019-01-22T00:58:29.252Z,0.00
2019-01-22T00:59:29.415Z,0.00
2019-01-22T01:00:29.615Z,0.00
2019-01-22T01:01:29.738Z,0.00
2019-01-22T01:02:29.903Z,0.00
2019-01-22T01:03:30.060Z,0.00
2019-01-22T01:04:30.231Z,0.00
2019-01-22T01:05:30.396Z,0.00
2019-01-22T01:06:30.559Z,0.00
2019-01-22T01:07:30.725Z,0.00
2019-01-22T01:08:30.885Z,0.00
2019-01-22T01:09:31.036Z,0.00
2019-01-22T01:10:31.197Z,0.00
2019-01-22T01:11:31.362Z,0.00
2019-01-22T01:12:31.524Z,0.00
2019-01-22T01:13:31.696Z,0.00
2019-01-22T01:14:31.841Z,0.00
2019-01-22T01:15:32.019Z,0.00
2019-01-22T01:16:32.188Z,0.00
2019-01-22T01:17:32.352Z,0.00
2019-01-22T01:18:32.521Z,0.00
2019-01-22T01:19:32.691Z,0.00
2019-01-22T01:20:32.845Z,0.00
2019-01-22T01:21:35.621Z,0.00
2019-01-22T01:22:33.188Z,0.00
2019-01-22T01:23:36.714Z,0.00
2019-01-22T01:24:33.506Z,0.00
2019-01-22T01:25:33.669Z,0.00
2019-01-22T01:26:34.774Z,0.00
2019-01-22T01:27:35.990Z,0.00
2019-01-22T01:28:37.879Z,0.00
2019-01-22T01:29:37.033Z,0.00
2019-01-22T01:30:34.468Z,0.00
2019-01-22T01:31:39.504Z,0.00
2019-01-22T01:32:34.844Z,0.00
2019-01-22T01:33:38.790Z,0.00
2019-01-22T01:34:36.718Z,0.00
2019-01-22T01:35:37.679Z,0.00
2019-01-22T01:36:37.719Z,0.00
2019-01-22T01:37:39.958Z,0.00
2019-01-22T01:38:38.976Z,0.00
2019-01-22T01:39:36.644Z,0.00
2019-01-22T01:40:39.482Z,0.00
2019-01-22T01:41:36.137Z,0.00
2019-01-22T01:42:40.767Z,0.00
2019-01-22T01:43:37.581Z,0.00
2019-01-22T01:44:39.439Z,0.00
2019-01-22T01:45:36.766Z,0.00
2019-01-22T01:46:36.935Z,0.00
2019-01-22T01:47:37.102Z,0.00
2019-01-22T01:48:37.264Z,0.00
2019-01-22T01:49:37.428Z,0.00
2019-01-22T01:50:37.592Z,0.00
2019-01-22T01:51:37.751Z,0.00
2019-01-22T01:52:37.921Z,0.00
2019-01-22T01:53:38.092Z,0.00
2019-01-22T01:54:38.244Z,0.00
2019-01-22T01:55:38.405Z,0.00
2019-01-22T01:56:38.561Z,0.00
2019-01-22T01:57:38.718Z,0.00
2019-01-22T01:58:38.884Z,0.00
2019-01-22T01:59:39.047Z,0.00
2019-01-22T02:00:39.208Z,0.00
2019-01-22T02:01:39.364Z,0.00
2019-01-22T02:02:39.524Z,0.00
2019-01-22T02:03:39.690Z,0.00
2019-01-22T02:04:39.852Z,0.00
2019-01-22T02:05:40.008Z,0.00
2019-01-22T02:06:40.171Z,0.00
2019-01-22T02:07:40.339Z,0.00
2019-01-22T02:08:40.513Z,0.00
2019-01-22T02:09:40.676Z,0.00
2019-01-22T02:10:40.834Z,0.00
2019-01-22T02:11:41.004Z,0.00
2019-01-22T02:12:41.167Z,0.00
2019-01-22T02:13:41.333Z,0.00
2019-01-22T02:14:41.487Z,0.00
2019-01-22T02:15:41.652Z,0.00
2019-01-22T02:16:41.805Z,0.00
2019-01-22T02:17:41.980Z,0.00
2019-01-22T02:18:42.107Z,0.00
2019-01-22T02:19:42.267Z,0.00
2019-01-22T02:20:42.430Z,0.00
2019-01-22T02:21:42.599Z,0.00
2019-01-22T02:22:42.761Z,0.00
2019-01-22T02:23:42.924Z,0.00
2019-01-22T02:24:43.086Z,0.00
2019-01-22T02:25:43.239Z,0.00
2019-01-22T02:26:43.402Z,0.00
2019-01-22T02:27:43.563Z,0.00
2019-01-22T02:28:43.725Z,0.00
2019-01-22T02:29:43.895Z,0.00
2019-01-22T02:30:44.058Z,0.00
2019-01-22T02:31:44.215Z,0.00
2019-01-22T02:32:44.383Z,0.00
2019-01-22T02:33:44.550Z,0.00
2019-01-22T02:34:44.737Z,0.00
2019-01-22T02:35:44.884Z,0.00
2019-01-22T02:36:45.052Z,0.00
2019-01-22T02:37:45.213Z,0.00
2019-01-22T02:38:45.386Z,0.00
2019-01-22T02:39:45.541Z,0.00
2019-01-22T02:40:45.705Z,0.00
2019-01-22T02:41:45.868Z,0.00
2019-01-22T02:42:46.036Z,0.00
2019-01-22T02:43:46.207Z,0.00
2019-01-22T02:44:46.365Z,0.00
2019-01-22T02:45:46.534Z,0.00
2019-01-22T02:46:46.690Z,0.00
2019-01-22T02:47:46.867Z,0.00
2019-01-22T02:48:47.029Z,0.00
2019-01-22T02:49:47.190Z,0.00
2019-01-22T02:50:47.346Z,0.00
2019-01-22T02:51:47.519Z,0.00
2019-01-22T02:52:47.685Z,0.00
2019-01-22T02:53:47.853Z,0.00
2019-01-22T02:54:48.023Z,0.00
2019-01-22T02:55:48.180Z,0.00
2019-01-22T02:56:48.345Z,0.00
2019-01-22T02:57:48.508Z,0.00
2019-01-22T02:58:48.675Z,0.00
2019-01-22T02:59:48.845Z,0.00
2019-01-22T03:00:49.011Z,0.00
2019-01-22T03:01:49.178Z,0.00
2019-01-22T03:02:49.339Z,0.00
2019-01-22T03:03:49.504Z,0.00
2019-01-22T03:04:49.703Z,0.00
2019-01-22T03:05:49.853Z,0.00
2019-01-22T03:06:50.017Z,0.00
2019-01-22T03:07:50.170Z,0.00
2019-01-22T03:08:50.336Z,0.00
2019-01-22T03:09:50.490Z,0.00
2019-01-22T03:10:50.647Z,0.00
2019-01-22T03:11:50.811Z,0.00
2019-01-22T03:12:50.978Z,0.00
2019-01-22T03:13:51.142Z,0.00
2019-01-22T03:14:51.303Z,0.00
2019-01-22T03:15:51.474Z,0.00
2019-01-22T03:16:51.638Z,0.00
2019-01-22T03:17:51.816Z,0.00
2019-01-22T03:18:52.011Z,0.00
2019-01-22T03:19:52.172Z,0.00
2019-01-22T03:20:52.328Z,0.00
2019-01-22T03:21:52.486Z,0.00
2019-01-22T03:22:52.646Z,0.00
2019-01-22T03:23:57.383Z,0.00
2019-01-22T03:24:52.996Z,0.00
2019-01-22T03:25:53.157Z,0.00
2019-01-22T03:26:53.308Z,0.00
2019-01-22T03:27:53.504Z,0.00
2019-01-22T03:28:53.678Z,0.00
2019-01-22T03:29:53.833Z,0.00
2019-01-22T03:30:54.001Z,0.00
2019-01-22T03:31:54.166Z,0.00
2019-01-22T03:32:57.985Z,0.00
2019-01-22T03:33:54.491Z,0.00
2019-01-22T03:34:54.659Z,0.00
2019-01-22T03:35:54.956Z,0.00
2019-01-22T03:36:55.010Z,0.00
2019-01-22T03:37:55.160Z,0.00
2019-01-22T03:38:55.326Z,0.00
2019-01-22T03:39:55.494Z,0.00
2019-01-22T03:40:55.647Z,0.00
2019-01-22T03:41:55.815Z,0.00
2019-01-22T03:42:55.974Z,0.00
2019-01-22T03:43:56.129Z,0.00
2019-01-22T03:44:56.288Z,0.00
2019-01-22T03:45:56.454Z,0.00
2019-01-22T03:46:56.608Z,0.00
2019-01-22T03:47:56.780Z,0.00
2019-01-22T03:49:05.116Z,0.00
2019-01-22T03:50:06.083Z,0.00
2019-01-22T03:51:01.667Z,0.00
2019-01-22T03:52:01.128Z,0.00
2019-01-22T03:53:02.854Z,0.00
2019-01-22T03:54:09.336Z,0.00
2019-01-22T03:54:58.897Z,0.00
2019-01-22T03:55:58.042Z,0.00
2019-01-22T03:56:58.207Z,0.00
2019-01-22T03:57:58.381Z,0.00
2019-01-22T03:58:58.594Z,0.00
2019-01-22T03:59:58.891Z,0.00
2019-01-22T04:00:58.962Z,0.00
2019-01-22T04:01:59.189Z,0.00
2019-01-22T04:02:59.288Z,0.00
2019-01-22T04:03:59.490Z,0.00
2019-01-22T04:04:59.715Z,0.00
2019-01-22T04:05:59.776Z,0.00
2019-01-22T04:06:59.961Z,0.00
2019-01-22T04:08:00.159Z,0.00
2019-01-22T04:09:00.544Z,0.00
2019-01-22T04:10:00.554Z,0.00
2019-01-22T04:11:00.780Z,0.00
2019-01-22T04:12:00.744Z,0.00
2019-01-22T04:13:00.989Z,0.00
2019-01-22T04:14:01.057Z,0.00
2019-01-22T04:15:01.222Z,0.00
2019-01-22T04:16:01.420Z,0.00
2019-01-22T04:17:01.611Z,0.00
2019-01-22T04:18:01.836Z,0.00
2019-01-22T04:19:02.097Z,0.00
2019-01-22T04:20:02.157Z,0.00
2019-01-22T04:21:02.401Z,0.00
2019-01-22T04:22:02.472Z,0.00
2019-01-22T04:23:02.687Z,0.00
2019-01-22T04:24:02.789Z,0.00
2019-01-22T04:25:02.859Z,0.00
2019-01-22T04:26:03.073Z,0.00
2019-01-22T04:27:03.141Z,0.00
2019-01-22T04:28:03.399Z,0.00
2019-01-22T04:29:06.244Z,0.00
2019-01-22T04:30:06.990Z,0.00
2019-01-22T04:31:03.748Z,0.00
2019-01-22T04:32:03.818Z,0.00
2019-01-22T04:33:04.022Z,0.00
2019-01-22T04:34:04.202Z,0.00
2019-01-22T04:35:04.401Z,0.00
2019-01-22T04:36:04.627Z,0.00
2019-01-22T04:37:04.715Z,0.00
2019-01-22T04:38:04.795Z,0.00
2019-01-22T04:39:04.977Z,0.00
2019-01-22T04:40:05.213Z,0.00
2019-01-22T04:41:05.295Z,0.00
2019-01-22T04:42:05.378Z,0.00
2019-01-22T04:43:05.586Z,0.00
2019-01-22T04:44:05.699Z,0.00
2019-01-22T04:45:05.820Z,0.00
2019-01-22T04:46:06.067Z,0.00
2019-01-22T04:47:06.060Z,0.00
2019-01-22T04:48:06.150Z,0.00
2019-01-22T04:49:06.231Z,0.00
2019-01-22T04:50:06.467Z,0.00
2019-01-22T04:51:07.401Z,0.00
2019-01-22T04:52:06.720Z,0.00
2019-01-22T04:53:06.955Z,0.00
2019-01-22T04:54:09.836Z,0.00
2019-01-22T04:55:07.238Z,0.00
2019-01-22T04:56:07.291Z,0.00
2019-01-22T04:57:07.518Z,0.00
2019-01-22T04:58:07.665Z,0.00
2019-01-22T04:59:07.785Z,0.00
2019-01-22T05:00:07.859Z,0.00
2019-01-22T05:01:08.126Z,0.00
2019-01-22T05:02:08.228Z,0.00
2019-01-22T05:03:08.388Z,0.00
2019-01-22T05:04:08.674Z,0.00
2019-01-22T05:05:11.823Z,0.00
2019-01-22T05:06:10.448Z,0.00
2019-01-22T05:07:13.269Z,0.00
2019-01-22T05:08:11.835Z,0.00
2019-01-22T05:09:09.493Z,0.00
2019-01-22T05:10:12.582Z,0.00
2019-01-22T05:11:09.699Z,0.00
2019-01-22T05:12:09.807Z,0.00
2019-01-22T05:13:09.900Z,0.00
2019-01-22T05:14:10.009Z,0.00
2019-01-22T05:15:10.094Z,0.00
2019-01-22T05:16:10.303Z,0.00
2019-01-22T05:17:10.518Z,0.00
2019-01-22T05:18:10.597Z,0.00
2019-01-22T05:19:10.762Z,0.00
2019-01-22T05:20:11.117Z,0.00
2019-01-22T05:21:11.120Z,0.00
2019-01-22T05:22:11.355Z,0.00
2019-01-22T05:23:11.414Z,0.00
2019-01-22T05:24:17.591Z,0.00
2019-01-22T05:25:11.804Z,0.00
2019-01-22T05:26:11.988Z,0.00
2019-01-22T05:27:17.439Z,0.00
2019-01-22T05:28:12.407Z,0.00
2019-01-22T05:29:12.544Z,0.00
2019-01-22T05:30:12.690Z,0.00
2019-01-22T05:31:12.782Z,0.00
2019-01-22T05:32:12.869Z,0.00
2019-01-22T05:33:12.960Z,0.00
2019-01-22T05:34:13.148Z,0.00
2019-01-22T05:35:13.360Z,0.00
2019-01-22T05:36:13.509Z,0.00
2019-01-22T05:37:13.581Z,0.00
2019-01-22T05:38:13.840Z,0.00
2019-01-22T05:39:13.957Z,0.00
2019-01-22T05:40:14.097Z,0.00
2019-01-22T05:41:14.168Z,0.00
2019-01-22T05:42:14.371Z,0.00
2019-01-22T05:43:14.634Z,0.00
2019-01-22T05:44:14.711Z,0.00
2019-01-22T05:45:14.890Z,0.00
2019-01-22T05:46:15.094Z,0.00
2019-01-22T05:47:15.308Z,0.00
2019-01-22T05:48:15.376Z,0.00
2019-01-22T05:49:15.595Z,0.00
2019-01-22T05:50:15.662Z,0.00
2019-01-22T05:51:15.877Z,0.00
2019-01-22T05:52:16.016Z,0.00
2019-01-22T05:53:16.087Z,0.00
2019-01-22T05:54:25.134Z,0.00
2019-01-22T05:55:16.873Z,0.00
2019-01-22T05:56:18.206Z,0.00
2019-01-22T05:57:17.747Z,0.00
2019-01-22T05:58:18.472Z,0.00
2019-01-22T05:59:20.103Z,0.00
2019-01-22T06:00:17.392Z,0.00
2019-01-22T06:01:17.828Z,0.00
2019-01-22T06:02:17.859Z,0.00
2019-01-22T06:03:17.948Z,0.00
2019-01-22T06:04:18.062Z,0.00
2019-01-22T06:05:18.237Z,0.00
2019-01-22T06:06:18.532Z,0.00
2019-01-22T06:07:18.513Z,0.00
2019-01-22T06:08:18.593Z,0.00
2019-01-22T06:09:18.833Z,0.00
2019-01-22T06:10:20.210Z,0.00
2019-01-22T06:11:19.717Z,0.00
2019-01-22T06:12:20.082Z,0.00
2019-01-22T06:13:21.106Z,0.00
2019-01-22T06:14:19.668Z,0.00
2019-01-22T06:15:19.628Z,0.00
2019-01-22T06:16:20.551Z,0.00
2019-01-22T06:17:21.277Z,0.00
2019-01-22T06:18:20.230Z,0.00
2019-01-22T06:19:20.391Z,0.00
2019-01-22T06:20:21.402Z,0.00
2019-01-22T06:21:22.145Z,0.00
2019-01-22T06:22:22.383Z,0.00
2019-01-22T06:23:22.107Z,0.00
2019-01-22T06:24:22.265Z,0.00
2019-01-22T06:25:23.093Z,0.00
2019-01-22T06:26:22.379Z,0.00
2019-01-22T06:27:22.598Z,0.00
2019-01-22T06:28:22.766Z,0.00
2019-01-22T06:29:22.095Z,0.00
2019-01-22T06:30:21.791Z,0.00
2019-01-22T06:31:23.947Z,0.00
2019-01-22T06:32:24.239Z,0.00
2019-01-22T06:33:23.924Z,0.00
2019-01-22T06:34:22.329Z,0.00
2019-01-22T06:35:22.855Z,0.00
2019-01-22T06:36:22.848Z,0.00
2019-01-22T06:37:22.837Z,4.00
2019-01-22T06:38:23.094Z,4.00
2019-01-22T06:39:23.436Z,0.00
2019-01-22T06:40:23.290Z,4.00
2019-01-22T06:41:23.388Z,0.00
2019-01-22T06:42:23.641Z,4.00
2019-01-22T06:43:23.735Z,4.00
2019-01-22T06:44:23.895Z,4.00
2019-01-22T06:45:24.015Z,4.00
2019-01-22T06:46:24.094Z,8.00
2019-01-22T06:47:24.301Z,12.00
2019-01-22T06:48:25.385Z,12.00
2019-01-22T06:49:24.788Z,12.00
2019-01-22T06:50:26.727Z,16.00
2019-01-22T06:51:25.080Z,16.00
2019-01-22T06:52:25.294Z,20.00
2019-01-22T06:53:25.299Z,20.00
2019-01-22T06:54:25.362Z,24.00
2019-01-22T06:55:25.605Z,28.00
2019-01-22T06:56:25.719Z,32.00
2019-01-22T06:57:25.823Z,36.00
2019-01-22T06:58:26.029Z,44.00
2019-01-22T06:59:26.918Z,48.00
2019-01-22T07:00:26.287Z,52.00
2019-01-22T07:01:26.473Z,56.00
2019-01-22T07:02:26.572Z,68.00
2019-01-22T07:03:27.758Z,72.00
2019-01-22T07:04:26.932Z,80.00
2019-01-22T07:05:27.012Z,88.00
2019-01-22T07:06:27.239Z,100.00
2019-01-22T07:07:27.383Z,104.00
2019-01-22T07:08:27.783Z,120.00
2019-01-22T07:09:27.631Z,132.00
2019-01-22T07:10:27.841Z,140.00
2019-01-22T07:11:27.937Z,152.00
2019-01-22T07:12:28.185Z,164.00
2019-01-22T07:13:28.294Z,176.00
2019-01-22T07:14:29.210Z,192.00
2019-01-22T07:15:28.787Z,204.00
2019-01-22T07:16:28.803Z,224.00
2019-01-22T07:17:28.988Z,236.00
2019-01-22T07:18:29.202Z,256.00
2019-01-22T07:19:29.713Z,272.00
2019-01-22T07:20:29.668Z,292.00
2019-01-22T07:21:32.226Z,308.00
2019-01-22T07:22:29.695Z,332.00
2019-01-22T07:23:29.839Z,348.00
2019-01-22T07:24:29.935Z,368.00
2019-01-22T07:25:30.091Z,388.00
2019-01-22T07:26:30.158Z,404.00
2019-01-22T07:27:30.361Z,420.00
2019-01-22T07:28:30.566Z,432.00
2019-01-22T07:29:30.845Z,444.00
2019-01-22T07:30:31.045Z,456.00
2019-01-22T07:31:31.761Z,464.00
2019-01-22T07:32:31.193Z,464.00
2019-01-22T07:33:31.681Z,456.00
2019-01-22T07:34:31.655Z,452.00
2019-01-22T07:35:34.884Z,436.00
2019-01-22T07:36:31.976Z,420.00
2019-01-22T07:37:32.208Z,404.00
2019-01-22T07:38:32.229Z,400.00
2019-01-22T07:39:32.300Z,404.00
2019-01-22T07:40:32.488Z,400.00
2019-01-22T07:41:32.777Z,396.00
2019-01-22T07:42:32.893Z,412.00
2019-01-22T07:43:32.960Z,424.00
2019-01-22T07:44:33.175Z,448.00
2019-01-22T07:45:33.257Z,484.00
2019-01-22T07:46:33.373Z,536.00
2019-01-22T07:47:33.442Z,564.00
2019-01-22T07:48:33.635Z,552.00
2019-01-22T07:49:33.833Z,544.00
2019-01-22T07:50:34.048Z,548.00
2019-01-22T07:51:34.268Z,544.00
2019-01-22T07:52:34.269Z,556.00
2019-01-22T07:53:34.350Z,616.00
2019-01-22T07:54:34.509Z,604.00
2019-01-22T07:55:34.717Z,632.00
2019-01-22T07:56:34.783Z,560.00
2019-01-22T07:57:34.968Z,572.00
2019-01-22T07:58:35.107Z,588.00
2019-01-22T07:59:35.284Z,592.00
2019-01-22T08:00:39.064Z,604.00
2019-01-22T08:01:35.617Z,600.00
2019-01-22T08:02:35.789Z,636.00
2019-01-22T08:03:36.043Z,680.00
2019-01-22T08:04:36.170Z,728.00
2019-01-22T08:05:36.324Z,736.00
2019-01-22T08:06:36.489Z,736.00
2019-01-22T08:07:36.655Z,712.00
2019-01-22T08:08:36.819Z,704.00
2019-01-22T08:09:36.991Z,716.00
2019-01-22T08:10:37.151Z,732.00
2019-01-22T08:11:37.319Z,780.00
2019-01-22T08:12:37.485Z,792.00
2019-01-22T08:13:37.641Z,828.00
2019-01-22T08:14:38.034Z,900.00
2019-01-22T08:15:37.994Z,952.00
2019-01-22T08:16:38.211Z,948.00
2019-01-22T08:17:38.414Z,980.00
2019-01-22T08:18:38.589Z,980.00
2019-01-22T08:19:38.753Z,984.00
2019-01-22T08:20:39.002Z,988.00
2019-01-22T08:21:39.091Z,992.00
2019-01-22T08:22:39.830Z,1052.00
2019-01-22T08:23:39.370Z,1040.00
2019-01-22T08:24:39.867Z,1044.00
2019-01-22T08:25:39.798Z,1048.00
2019-01-22T08:26:40.318Z,980.00
2019-01-22T08:27:40.038Z,1008.00
2019-01-22T08:28:42.279Z,1028.00
2019-01-22T08:29:40.243Z,1064.00
2019-01-22T08:30:41.020Z,1104.00
2019-01-22T08:31:43.926Z,1068.00
2019-01-22T08:32:40.730Z,1116.00
2019-01-22T08:33:42.297Z,1168.00
2019-01-22T08:35:10.427Z,1176.00
2019-01-22T08:35:46.264Z,1212.00
2019-01-22T08:36:48.832Z,1200.00
2019-01-22T08:37:42.537Z,1272.00
2019-01-22T08:38:43.463Z,1236.00
2019-01-22T08:39:41.874Z,1156.00
2019-01-22T08:40:51.191Z,1224.00
2019-01-22T08:41:49.067Z,1252.00
2019-01-22T08:42:48.761Z,1312.00
2019-01-22T08:44:15.322Z,1288.00
2019-01-22T08:44:42.763Z,1200.00
2019-01-22T08:45:42.911Z,1120.00
2019-01-22T08:46:43.086Z,1172.00
2019-01-22T08:47:43.264Z,1148.00
2019-01-22T08:48:43.411Z,1176.00
2019-01-22T08:49:49.678Z,1180.00
2019-01-22T08:50:46.838Z,1244.00
2019-01-22T08:51:46.436Z,1236.00
2019-01-22T08:52:45.695Z,1268.00
2019-01-22T08:53:46.030Z,1388.00
2019-01-22T08:54:45.457Z,1480.00
2019-01-22T08:55:46.148Z,1540.00
2019-01-22T08:56:44.496Z,1576.00
2019-01-22T08:57:44.729Z,1644.00
2019-01-22T08:58:44.933Z,1648.00
2019-01-22T08:59:45.059Z,1500.00
2019-01-22T09:00:45.156Z,1468.00
2019-01-22T09:01:45.327Z,1568.00
2019-01-22T09:02:45.499Z,1460.00
2019-01-22T09:03:45.681Z,1528.00
2019-01-22T09:04:45.846Z,1496.00
2019-01-22T09:05:46.009Z,1488.00
2019-01-22T09:06:46.173Z,1448.00
2019-01-22T09:07:46.355Z,1448.00
2019-01-22T09:08:46.525Z,1512.00
2019-01-22T09:09:48.915Z,1460.00
2019-01-22T09:10:46.827Z,1440.00
2019-01-22T09:11:47.746Z,1472.00
2019-01-22T09:12:49.510Z,1584.00
2019-01-22T09:13:47.382Z,1524.00
2019-01-22T09:14:48.178Z,1548.00
2019-01-22T09:15:47.675Z,1476.00
2019-01-22T09:16:47.840Z,1416.00
2019-01-22T09:17:52.095Z,1428.00
2019-01-22T09:18:49.981Z,1444.00
2019-01-22T09:19:52.212Z,1372.00
2019-01-22T09:20:50.504Z,1412.00
2019-01-22T09:21:50.053Z,1452.00
2019-01-22T09:22:48.609Z,1496.00
2019-01-22T09:23:48.796Z,1492.00
2019-01-22T09:24:48.952Z,1420.00
2019-01-22T09:25:49.105Z,1448.00
2019-01-22T09:26:49.267Z,1444.00
2019-01-22T09:27:49.432Z,1508.00
2019-01-22T09:28:49.595Z,1588.00
2019-01-22T09:29:50.087Z,1528.00
2019-01-22T09:30:50.177Z,1564.00
2019-01-22T09:31:50.372Z,1560.00
2019-01-22T09:32:50.403Z,1704.00
2019-01-22T09:33:50.703Z,1560.00
2019-01-22T09:34:50.861Z,1432.00
2019-01-22T09:35:51.090Z,1408.00
2019-01-22T09:36:51.178Z,1532.00
2019-01-22T09:37:51.329Z,1640.00
2019-01-22T09:38:52.404Z,1576.00
2019-01-22T09:39:52.358Z,1684.00
2019-01-22T09:40:51.468Z,1704.00
2019-01-22T09:41:51.637Z,1720.00
2019-01-22T09:42:51.824Z,1740.00
2019-01-22T09:43:51.958Z,1688.00
2019-01-22T09:44:52.161Z,1628.00
2019-01-22T09:45:52.325Z,1624.00
2019-01-22T09:46:52.481Z,1612.00
2019-01-22T09:47:52.639Z,1528.00
2019-01-22T09:48:54.816Z,1512.00
2019-01-22T09:49:53.019Z,1596.00
2019-01-22T09:50:54.021Z,1580.00
2019-01-22T09:51:53.357Z,1620.00
2019-01-22T09:52:53.519Z,1716.00
2019-01-22T09:53:53.683Z,1764.00
2019-01-22T09:54:53.856Z,1780.00
2019-01-22T09:56:00.347Z,1816.00
2019-01-22T09:56:54.178Z,1832.00
2019-01-22T09:57:54.342Z,1848.00
2019-01-22T09:58:54.504Z,1856.00
2019-01-22T09:59:54.900Z,2040.00
2019-01-22T10:00:54.921Z,2084.00
2019-01-22T10:01:54.992Z,2008.00
2019-01-22T10:02:55.155Z,2024.00
2019-01-22T10:03:55.930Z,2112.00
2019-01-22T10:04:55.504Z,2124.00
2019-01-22T10:05:56.718Z,2200.00
2019-01-22T10:06:56.025Z,2160.00
2019-01-22T10:07:56.064Z,2264.00
2019-01-22T10:08:56.241Z,2464.00
2019-01-22T10:09:56.304Z,3052.00
2019-01-22T10:10:56.517Z,2840.00
2019-01-22T10:11:56.641Z,2708.00
2019-01-22T10:12:56.828Z,2636.00
2019-01-22T10:13:56.984Z,2676.00
2019-01-22T10:14:57.147Z,2876.00
2019-01-22T10:15:57.311Z,2664.00
2019-01-22T10:17:01.361Z,2920.00
2019-01-22T10:17:57.664Z,3052.00
2019-01-22T10:18:57.879Z,4080.00
2019-01-22T10:19:57.992Z,4100.00
2019-01-22T10:20:58.189Z,4100.00
2019-01-22T10:21:58.351Z,3452.00
2019-01-22T10:22:58.518Z,3384.00
2019-01-22T10:23:58.677Z,3232.00
2019-01-22T10:24:58.849Z,2948.00
2019-01-22T10:25:59.054Z,2932.00
2019-01-22T10:26:59.222Z,2904.00
2019-01-22T10:27:59.400Z,3024.00
2019-01-22T10:28:59.568Z,3060.00
2019-01-22T10:29:59.732Z,3044.00
2019-01-22T10:30:59.907Z,3092.00
2019-01-22T10:32:00.083Z,2720.00
2019-01-22T10:33:00.241Z,2628.00
2019-01-22T10:34:00.826Z,2552.00
2019-01-22T10:35:00.621Z,2260.00
2019-01-22T10:36:00.790Z,2212.00
2019-01-22T10:37:00.964Z,2164.00
2019-01-22T10:38:01.185Z,2208.00
2019-01-22T10:39:01.364Z,2236.00
2019-01-22T10:40:01.499Z,2240.00
2019-01-22T10:41:01.662Z,2276.00
2019-01-22T10:42:01.831Z,2168.00
2019-01-22T10:43:08.865Z,2300.00
2019-01-22T10:44:02.205Z,2476.00
2019-01-22T10:45:02.469Z,2212.00
2019-01-22T10:46:02.510Z,2212.00
2019-01-22T10:47:02.682Z,2084.00
2019-01-22T10:48:02.853Z,2152.00
2019-01-22T10:49:03.019Z,2168.00
2019-01-22T10:50:03.362Z,2060.00
2019-01-22T10:51:03.317Z,1912.00
2019-01-22T10:52:03.566Z,1944.00
2019-01-22T10:53:03.587Z,2168.00
2019-01-22T10:54:03.752Z,2012.00
2019-01-22T10:55:03.915Z,1848.00
2019-01-22T10:56:04.166Z,1916.00
2019-01-22T10:57:04.223Z,1884.00
2019-01-22T10:58:08.604Z,1924.00
2019-01-22T10:59:04.718Z,1932.00
2019-01-22T11:00:04.750Z,1992.00
2019-01-22T11:01:04.908Z,1864.00
2019-01-22T11:02:05.362Z,2088.00
2019-01-22T11:03:05.432Z,2236.00
2019-01-22T11:04:05.587Z,2308.00
2019-01-22T11:05:05.804Z,2464.00
2019-01-22T11:06:06.131Z,2568.00
2019-01-22T11:07:05.992Z,2624.00
2019-01-22T11:08:06.157Z,2464.00
2019-01-22T11:09:06.337Z,2388.00
2019-01-22T11:10:06.499Z,2384.00
2019-01-22T11:11:06.658Z,2308.00
2019-01-22T11:12:06.820Z,2308.00
2019-01-22T11:13:07.039Z,2404.00
2019-01-22T11:14:07.072Z,2312.00
2019-01-22T11:15:07.238Z,2368.00
2019-01-22T11:16:07.429Z,2264.00
2019-01-22T11:17:07.735Z,2156.00
2019-01-22T11:18:07.800Z,2188.00
2019-01-22T11:19:07.968Z,2376.00
2019-01-22T11:20:08.127Z,2584.00
2019-01-22T11:21:08.293Z,2260.00
2019-01-22T11:22:08.493Z,2268.00
2019-01-22T11:23:08.656Z,2192.00
2019-01-22T11:24:08.819Z,2068.00
2019-01-22T11:25:08.987Z,1884.00
2019-01-22T11:26:09.661Z,2088.00
2019-01-22T11:27:09.328Z,2276.00
2019-01-22T11:28:09.511Z,2356.00
2019-01-22T11:29:09.678Z,2532.00
2019-01-22T11:30:12.827Z,2688.00
2019-01-22T11:31:10.047Z,2380.00
2019-01-22T11:32:10.218Z,2332.00
2019-01-22T11:33:10.458Z,2548.00
2019-01-22T11:34:10.548Z,2484.00
2019-01-22T11:35:10.616Z,2380.00
2019-01-22T11:36:10.757Z,2468.00
2019-01-22T11:37:10.957Z,2628.00
2019-01-22T11:38:12.756Z,2712.00
2019-01-22T11:39:11.259Z,2732.00
2019-01-22T11:40:11.444Z,3008.00
2019-01-22T11:41:11.604Z,3160.00
2019-01-22T11:42:11.792Z,3124.00
2019-01-22T11:43:12.142Z,3160.00
2019-01-22T11:44:12.064Z,3152.00
2019-01-22T11:45:12.235Z,3172.00
2019-01-22T11:46:12.392Z,3168.00
2019-01-22T11:47:12.563Z,3112.00
2019-01-22T11:48:12.865Z,2976.00
2019-01-22T11:49:12.927Z,2812.00
2019-01-22T11:50:13.126Z,2688.00
2019-01-22T11:51:13.618Z,2740.00
2019-01-22T11:52:14.872Z,2732.00
2019-01-22T11:53:13.593Z,2820.00
2019-01-22T11:54:14.086Z,2932.00
2019-01-22T11:55:14.295Z,2924.00
2019-01-22T11:56:14.058Z,2820.00
2019-01-22T11:57:15.457Z,2924.00
2019-01-22T11:58:14.383Z,3128.00
2019-01-22T11:59:14.950Z,3060.00
2019-01-22T12:00:14.734Z,2932.00
2019-01-22T12:01:14.912Z,2792.00
2019-01-22T12:02:15.083Z,2816.00
2019-01-22T12:03:15.460Z,2908.00
2019-01-22T12:04:18.297Z,3172.00
2019-01-22T12:05:15.504Z,2976.00
2019-01-22T12:06:18.838Z,2804.00
2019-01-22T12:07:16.875Z,2964.00
2019-01-22T12:08:15.924Z,3092.00
2019-01-22T12:09:16.254Z,2932.00
2019-01-22T12:10:24.610Z,3064.00
2019-01-22T12:11:24.440Z,2872.00
2019-01-22T12:12:17.173Z,2944.00
2019-01-22T12:13:16.779Z,2676.00
2019-01-22T12:14:17.557Z,2584.00
2019-01-22T12:15:17.593Z,2708.00
2019-01-22T12:16:19.454Z,3124.00
2019-01-22T12:17:18.324Z,2944.00
2019-01-22T12:18:17.797Z,2856.00
2019-01-22T12:19:17.731Z,3100.00
2019-01-22T12:20:18.018Z,3112.00
2019-01-22T12:21:18.515Z,3016.00
2019-01-22T12:22:18.140Z,2920.00
2019-01-22T12:23:19.968Z,3116.00
2019-01-22T12:24:18.347Z,3072.00
2019-01-22T12:25:18.503Z,3364.00
2019-01-22T12:26:18.594Z,3912.00
2019-01-22T12:27:18.648Z,3580.00
2019-01-22T12:28:18.971Z,3008.00
2019-01-22T12:29:19.199Z,3256.00
2019-01-22T12:30:19.665Z,3348.00
2019-01-22T12:31:19.959Z,3420.00
2019-01-22T12:32:19.545Z,3516.00
2019-01-22T12:33:19.799Z,3280.00
2019-01-22T12:34:19.761Z,3484.00
2019-01-22T12:35:20.265Z,3488.00
2019-01-22T12:36:20.236Z,3172.00
2019-01-22T12:37:20.596Z,3084.00
2019-01-22T12:38:20.951Z,2940.00
2019-01-22T12:39:20.863Z,2540.00
2019-01-22T12:40:22.005Z,2476.00
2019-01-22T12:41:21.085Z,2952.00
2019-01-22T12:42:23.858Z,2636.00
2019-01-22T12:43:21.939Z,2720.00
2019-01-22T12:44:22.390Z,3148.00
2019-01-22T12:45:23.432Z,3348.00
2019-01-22T12:46:21.955Z,3188.00
2019-01-22T12:47:23.402Z,3268.00
2019-01-22T12:48:22.706Z,2944.00